Time;durP1;ratioP1;P1;durP2;ratioP2;P2;SDS_P1;SDS_P2;PMS_P1;PMS_P2;Temp;Humidity;BMP_temperature;BMP_pressure;BME280_temperature;BME280_humidity;BME280_pressure;Samples;Min_cycle;Max_cycle;Signal;HPM_P1;HPM_P2
2023/05/03 00:01:40;;;;;;;4.97;2.72;;;6.00;96.50;;;;;;5035611;28;20415;-71
2023/05/03 00:04:06;;;;;;;6.68;2.80;;;6.00;96.30;;;;;;5035571;28;20043;-71
2023/05/03 00:06:31;;;;;;;6.70;2.58;;;5.90;96.60;;;;;;5018995;28;20044;-71
2023/05/03 00:08:57;;;;;;;7.72;2.63;;;5.90;96.70;;;;;;5035657;28;20049;-71
2023/05/03 00:11:23;;;;;;;9.05;2.50;;;5.90;96.80;;;;;;5019097;28;20417;-71
2023/05/03 00:13:48;;;;;;;4.80;2.83;;;5.90;97.10;;;;;;5035423;28;20041;-71
2023/05/03 00:16:14;;;;;;;6.50;2.60;;;6.00;97.30;;;;;;5035406;28;20040;-71
2023/05/03 00:18:39;;;;;;;6.65;2.60;;;6.00;97.50;;;;;;5035249;28;20045;-71
2023/05/03 00:21:05;;;;;;;9.20;2.95;;;6.00;97.70;;;;;;5035351;28;20037;-71
2023/05/03 00:23:31;;;;;;;8.32;2.85;;;6.00;98.00;;;;;;5035214;28;20037;-71
2023/05/03 00:25:58;;;;;;;10.63;2.70;;;6.00;98.00;;;;;;5035529;28;20037;-71
2023/05/03 00:28:24;;;;;;;8.13;2.95;;;6.00;98.00;;;;;;5035068;28;20456;-71
2023/05/03 00:30:50;;;;;;;7.28;2.75;;;6.10;98.20;;;;;;5035249;28;20049;-71
2023/05/03 00:33:16;;;;;;;8.63;2.45;;;6.10;98.40;;;;;;5035163;28;20062;-71
2023/05/03 00:35:43;;;;;;;5.07;2.58;;;6.10;98.60;;;;;;5035176;28;20124;-71
2023/05/03 00:38:08;;;;;;;3.90;1.98;;;6.10;98.50;;;;;;5035155;28;20067;-71
2023/05/03 00:40:34;;;;;;;8.07;2.80;;;6.20;98.70;;;;;;5018654;28;20481;-71
2023/05/03 00:43:00;;;;;;;5.15;2.47;;;6.20;98.70;;;;;;5035067;28;20052;-71
2023/05/03 00:45:25;;;;;;;6.28;2.40;;;6.20;98.80;;;;;;5035059;28;20185;-71
2023/05/03 00:47:51;;;;;;;6.00;2.60;;;6.30;99.00;;;;;;5034911;28;20098;-71
2023/05/03 00:50:17;;;;;;;7.72;2.58;;;6.30;99.10;;;;;;5035262;28;20041;-71
2023/05/03 00:52:44;;;;;;;7.15;2.45;;;6.30;99.00;;;;;;5035270;28;20509;-71
2023/05/03 00:55:10;;;;;;;5.97;2.28;;;6.30;99.10;;;;;;5035044;28;20045;-71
2023/05/03 00:57:36;;;;;;;6.32;2.30;;;6.40;99.50;;;;;;5034834;28;20063;-71
2023/05/03 01:00:02;;;;;;;6.07;2.90;;;6.40;99.80;;;;;;5035708;28;20037;-71
2023/05/03 01:02:28;;;;;;;8.35;2.60;;;6.40;99.90;;;;;;5018456;28;20037;-71
2023/05/03 01:04:54;;;;;;;10.05;2.63;;;6.50;99.90;;;;;;5052725;28;20085;-71
2023/05/03 01:07:41;;;;;;;8.23;2.63;;;6.50;99.70;;;;;;5018327;28;20073;-71
2023/05/03 01:10:37;;;;;;;9.70;2.38;;;6.40;99.80;;;;;;5034821;28;20045;-71
2023/05/03 01:13:13;;;;;;;7.00;2.28;;;6.50;99.90;;;;;;5034816;28;20425;-71
2023/05/03 01:16:05;;;;;;;8.98;2.20;;;6.60;99.90;;;;;;5034804;28;20033;-71
2023/05/03 01:18:36;;;;;;;10.68;2.08;;;6.60;99.90;;;;;;5038087;28;20044;-71
2023/05/03 01:21:04;;;;;;;4.32;1.60;;;6.60;99.90;;;;;;5038608;28;20045;-71
2023/05/03 01:23:50;;;;;;;6.53;2.30;;;6.60;99.90;;;;;;5038510;28;20033;-71
2023/05/03 01:26:22;;;;;;;6.40;2.28;;;6.60;99.90;;;;;;5022101;28;20076;-71
2023/05/03 01:28:47;;;;;;;5.97;2.08;;;6.70;99.90;;;;;;5038383;28;20080;-71
2023/05/03 01:31:27;;;;;;;5.07;2.25;;;6.70;99.90;;;;;;5038629;28;20080;-71
2023/05/03 01:34:11;;;;;;;6.90;2.58;;;6.70;99.90;;;;;;5038720;28;20048;-71
2023/05/03 01:36:42;;;;;;;5.90;2.03;;;6.70;99.90;;;;;;5038353;28;20033;-71
2023/05/03 01:39:13;;;;;;;6.43;2.00;;;6.80;99.90;;;;;;5038060;28;20040;-71
2023/05/03 01:41:41;;;;;;;7.40;2.28;;;6.80;99.90;;;;;;5038500;28;20055;-71
2023/05/03 01:44:08;;;;;;;6.70;1.67;;;6.80;99.90;;;;;;5038145;28;20056;-71
2023/05/03 01:46:33;;;;;;;4.63;1.60;;;6.80;99.90;;;;;;5021557;28;20044;-71
2023/05/03 01:48:59;;;;;;;8.27;2.38;;;6.70;99.90;;;;;;5038324;28;20120;-71
2023/05/03 01:51:25;;;;;;;5.50;1.80;;;6.70;99.90;;;;;;5038057;28;20401;-71
2023/05/03 01:53:50;;;;;;;5.68;1.70;;;6.80;99.90;;;;;;5037926;28;20076;-71
2023/05/03 01:56:16;;;;;;;5.47;1.73;;;6.80;99.90;;;;;;5038275;28;20041;-71
2023/05/03 01:58:42;;;;;;;4.22;1.60;;;6.70;99.90;;;;;;5055628;28;20044;-71
2023/05/03 02:01:07;;;;;;;5.55;1.95;;;6.70;99.90;;;;;;5055976;28;20489;-71
2023/05/03 02:03:33;;;;;;;6.10;1.70;;;6.70;99.90;;;;;;5037805;28;20114;-71
2023/05/03 02:05:59;;;;;;;4.20;1.70;;;6.60;99.90;;;;;;5038027;28;20032;-71
2023/05/03 02:08:24;;;;;;;3.40;1.80;;;6.60;99.90;;;;;;5037669;28;20444;-71
2023/05/03 02:10:50;;;;;;;6.57;1.70;;;6.50;99.90;;;;;;5037719;28;20044;-71
2023/05/03 02:13:16;;;;;;;6.32;1.83;;;6.60;99.90;;;;;;5037978;28;20124;-71
2023/05/03 02:15:41;;;;;;;4.75;2.00;;;6.50;99.90;;;;;;5037730;28;20090;-71
2023/05/03 02:18:08;;;;;;;4.00;1.90;;;6.50;99.90;;;;;;5037508;28;20044;-71
2023/05/03 02:20:36;;;;;;;5.50;1.88;;;6.50;99.90;;;;;;5037565;28;20088;-71
2023/05/03 02:23:03;;;;;;;7.38;2.28;;;6.40;99.90;;;;;;5037462;28;20047;-71
2023/05/03 02:25:29;;;;;;;4.63;2.13;;;6.50;99.90;;;;;;5037460;28;20037;-71
2023/05/03 02:27:54;;;;;;;5.45;1.70;;;6.40;99.90;;;;;;5036936;28;20126;-71
2023/05/03 02:30:20;;;;;;;4.13;2.05;;;6.40;99.90;;;;;;5054897;28;20497;-71
2023/05/03 02:32:46;;;;;;;4.57;1.70;;;6.30;99.90;;;;;;5037644;28;20044;-71
2023/05/03 02:35:11;;;;;;;5.82;1.95;;;6.30;99.90;;;;;;5037300;28;20041;-71
2023/05/03 02:37:37;;;;;;;6.75;1.88;;;6.30;99.90;;;;;;5037080;28;20063;-71
2023/05/03 02:40:04;;;;;;;4.50;1.55;;;6.20;99.90;;;;;;5037244;28;20116;-71
2023/05/03 02:42:30;;;;;;;9.05;2.50;;;6.20;99.90;;;;;;5037166;28;20049;-71
2023/05/03 02:44:56;;;;;;;4.95;2.58;;;6.20;99.90;;;;;;5037390;28;20041;-71
2023/05/03 02:47:21;;;;;;;4.40;1.83;;;6.10;99.90;;;;;;5036931;28;20095;-71
2023/05/03 02:49:47;;;;;;;5.68;1.98;;;6.10;99.90;;;;;;5037327;28;20120;-71
2023/05/03 02:52:12;;;;;;;4.60;1.88;;;6.00;99.90;;;;;;5037173;28;20508;-71
2023/05/03 02:54:38;;;;;;;4.90;1.88;;;6.00;99.90;;;;;;5036890;28;20040;-71
2023/05/03 02:57:04;;;;;;;4.03;2.05;;;5.90;99.90;;;;;;5036818;28;20041;-71
2023/05/03 02:59:31;;;;;;;7.90;2.05;;;5.90;99.90;;;;;;5036756;28;20049;-71
2023/05/03 03:01:57;;;;;;;4.97;1.80;;;5.90;99.90;;;;;;5036743;28;20041;-71
2023/05/03 03:04:23;;;;;;;3.33;1.75;;;5.80;99.90;;;;;;5036646;28;20037;-71
2023/05/03 03:06:52;;;;;;;4.00;1.85;;;5.80;99.90;;;;;;5036765;28;20556;-71
2023/05/03 03:09:18;;;;;;;5.20;1.92;;;5.80;99.90;;;;;;5054427;28;20120;-71
2023/05/03 03:11:43;;;;;;;3.72;1.90;;;5.80;99.90;;;;;;5036532;28;20077;-71
2023/05/03 03:14:09;;;;;;;4.25;2.03;;;5.70;99.90;;;;;;5036484;28;20041;-71
2023/05/03 03:16:35;;;;;;;4.75;1.70;;;5.70;99.90;;;;;;5036572;28;20077;-71
2023/05/03 03:19:00;;;;;;;7.97;2.38;;;5.60;99.90;;;;;;5036367;28;20045;-71
2023/05/03 03:21:27;;;;;;;4.60;1.98;;;5.50;99.90;;;;;;5036366;28;20517;-71
2023/05/03 03:23:53;;;;;;;8.43;2.15;;;5.50;99.90;;;;;;5036628;28;20044;-71
2023/05/03 03:26:19;;;;;;;4.78;1.80;;;5.50;99.90;;;;;;5036806;28;20512;-71
2023/05/03 03:28:44;;;;;;;6.82;1.80;;;5.50;99.90;;;;;;5036422;28;20129;-71
2023/05/03 03:31:10;;;;;;;4.60;1.70;;;5.50;99.90;;;;;;5036265;28;20390;-71
2023/05/03 03:33:35;;;;;;;6.10;1.83;;;5.40;99.90;;;;;;5036150;28;20072;-71
2023/05/03 03:36:01;;;;;;;6.25;1.90;;;5.40;99.90;;;;;;5054453;28;20032;-71
2023/05/03 03:38:26;;;;;;;5.75;2.22;;;5.40;99.90;;;;;;5035938;28;20049;-71
2023/05/03 03:40:53;;;;;;;5.07;2.00;;;5.30;99.90;;;;;;5019437;28;20037;-71
2023/05/03 03:43:18;;;;;;;6.10;1.90;;;5.30;99.90;;;;;;5036180;28;20041;-71
2023/05/03 03:45:44;;;;;;;4.50;1.90;;;5.20;99.90;;;;;;5054040;28;20382;-71
2023/05/03 03:48:10;;;;;;;4.68;2.20;;;5.20;99.90;;;;;;5035810;28;20045;-71
2023/05/03 03:50:37;;;;;;;3.47;1.95;;;5.20;99.90;;;;;;5035961;28;20100;-71
2023/05/03 03:53:02;;;;;;;5.53;2.15;;;5.10;99.90;;;;;;5036070;28;20052;-71
2023/05/03 03:55:28;;;;;;;4.63;2.15;;;5.10;99.90;;;;;;5019283;28;20040;-71
2023/05/03 03:57:53;;;;;;;7.70;1.95;;;5.00;99.90;;;;;;5019381;28;20076;-71
2023/05/03 04:00:19;;;;;;;6.10;2.40;;;5.00;99.90;;;;;;5035687;28;20047;-71
2023/05/03 04:02:45;;;;;;;5.03;2.03;;;5.00;99.90;;;;;;5035900;28;20037;-71
2023/05/03 04:05:11;;;;;;;5.93;1.95;;;5.00;99.90;;;;;;5035682;28;20494;-71
2023/05/03 04:07:36;;;;;;;5.85;2.78;;;5.00;99.90;;;;;;5035545;28;20053;-71
2023/05/03 04:10:02;;;;;;;6.53;3.17;;;5.00;99.90;;;;;;5035608;28;20497;-71
2023/05/03 04:12:28;;;;;;;6.10;2.70;;;4.90;99.90;;;;;;5019021;28;20041;-71
2023/05/03 04:14:55;;;;;;;4.28;2.47;;;4.90;99.90;;;;;;5035437;28;20044;-71
2023/05/03 04:17:21;;;;;;;4.80;2.53;;;4.90;99.90;;;;;;5035330;28;20163;-71
2023/05/03 04:19:47;;;;;;;3.53;2.53;;;5.00;99.90;;;;;;5035411;28;20123;-71
2023/05/03 04:22:13;;;;;;;4.07;2.45;;;5.00;99.90;;;;;;5035392;28;20033;-71
2023/05/03 04:24:39;;;;;;;5.07;2.85;;;5.00;99.90;;;;;;5035419;28;20041;-71
2023/05/03 04:27:05;;;;;;;12.20;3.08;;;4.90;99.90;;;;;;5035292;28;20524;-71
2023/05/03 04:29:30;;;;;;;6.50;2.67;;;5.00;99.90;;;;;;5035570;28;20049;-71
2023/05/03 04:31:56;;;;;;;9.70;2.58;;;5.00;99.90;;;;;;5035587;28;20497;-71
2023/05/03 04:34:22;;;;;;;8.52;2.83;;;5.00;99.90;;;;;;5035274;28;20526;-71
2023/05/03 04:36:48;;;;;;;7.18;2.70;;;5.00;99.90;;;;;;5035454;28;20119;-70
2023/05/03 04:39:14;;;;;;;8.38;3.20;;;5.10;99.90;;;;;;5035201;28;20497;-70
2023/05/03 04:41:40;;;;;;;4.80;3.00;;;5.10;99.90;;;;;;5035452;28;20041;-70
2023/05/03 04:44:06;;;;;;;7.00;2.83;;;5.10;99.90;;;;;;5035340;28;20425;-70
2023/05/03 04:46:32;;;;;;;5.45;2.92;;;5.10;99.90;;;;;;5035207;28;20056;-70
2023/05/03 04:48:58;;;;;;;5.38;2.88;;;5.20;99.90;;;;;;5035041;28;20440;-71
2023/05/03 04:51:23;;;;;;;7.35;3.40;;;5.30;99.90;;;;;;5035092;28;20037;-71
2023/05/03 04:53:49;;;;;;;5.45;3.10;;;5.40;99.90;;;;;;5022630;28;20041;-71
2023/05/03 04:56:15;;;;;;;6.18;2.92;;;5.40;99.90;;;;;;5039356;28;20091;-71
2023/05/03 04:58:41;;;;;;;8.00;3.28;;;5.50;99.90;;;;;;5023166;28;20037;-71
2023/05/03 05:01:07;;;;;;;9.45;3.55;;;5.60;99.90;;;;;;5039059;28;20079;-71
2023/05/03 05:03:33;;;;;;;7.93;3.80;;;5.70;99.90;;;;;;5039008;28;20041;-70
2023/05/03 05:05:59;;;;;;;9.65;4.63;;;5.70;99.90;;;;;;5038941;28;20072;-71
2023/05/03 05:08:24;;;;;;;10.07;3.60;;;5.80;99.90;;;;;;5038835;28;20095;-71
2023/05/03 05:10:50;;;;;;;10.52;3.75;;;5.90;99.90;;;;;;5022387;28;20037;-71
2023/05/03 05:13:16;;;;;;;10.40;3.60;;;5.90;99.90;;;;;;5039081;28;20045;-71
2023/05/03 05:15:42;;;;;;;8.52;3.40;;;6.00;99.90;;;;;;5057187;28;20037;-71
2023/05/03 05:18:08;;;;;;;10.18;3.22;;;6.10;99.90;;;;;;5038751;28;20045;-71
2023/05/03 05:20:34;;;;;;;8.35;3.47;;;6.10;99.90;;;;;;5038986;28;20052;-71
2023/05/03 05:22:59;;;;;;;6.78;3.42;;;6.20;99.90;;;;;;5038638;28;20503;-71
2023/05/03 05:25:26;;;;;;;4.68;2.92;;;6.30;99.90;;;;;;5038596;28;20033;-71
2023/05/03 05:27:51;;;;;;;5.38;3.20;;;6.50;99.90;;;;;;5038762;28;20037;-70
2023/05/03 05:30:18;;;;;;;7.35;2.80;;;6.50;99.90;;;;;;5038534;28;20394;-70
2023/05/03 05:32:43;;;;;;;12.02;3.10;;;6.60;99.90;;;;;;5038833;28;20095;-70
2023/05/03 05:35:09;;;;;;;6.60;2.80;;;6.70;99.90;;;;;;5038670;28;20499;-71
2023/05/03 05:37:35;;;;;;;9.80;3.00;;;6.80;99.90;;;;;;5038209;28;20432;-71
2023/05/03 05:40:00;;;;;;;6.03;3.00;;;6.90;99.90;;;;;;5038543;28;20095;-71
2023/05/03 05:42:26;;;;;;;10.40;3.58;;;7.00;99.90;;;;;;5038351;28;20493;-71
2023/05/03 05:44:51;;;;;;;6.78;3.25;;;7.00;99.90;;;;;;5038619;28;20040;-70
2023/05/03 05:47:17;;;;;;;6.88;2.65;;;7.10;99.90;;;;;;5038292;28;20433;-70
2023/05/03 05:49:42;;;;;;;7.72;2.83;;;7.20;99.90;;;;;;5038488;28;20071;-70
2023/05/03 05:52:08;;;;;;;4.95;2.63;;;7.30;99.90;;;;;;5038171;28;20553;-70
2023/05/03 05:54:33;;;;;;;7.63;2.75;;;7.30;99.90;;;;;;5021861;28;20041;-70
2023/05/03 05:57:00;;;;;;;4.25;2.20;;;7.40;99.90;;;;;;5021537;28;20429;-71
2023/05/03 05:59:25;;;;;;;7.22;2.58;;;7.50;99.90;;;;;;5037950;28;20103;-71
2023/05/03 06:01:51;;;;;;;4.97;2.10;;;7.70;99.90;;;;;;5055789;28;20493;-71
2023/05/03 06:04:17;;;;;;;5.07;2.08;;;7.80;99.90;;;;;;5037870;28;20068;-71
2023/05/03 06:06:42;;;;;;;4.32;2.00;;;7.80;99.90;;;;;;5037835;28;20053;-71
2023/05/03 06:09:08;;;;;;;5.80;1.80;;;7.90;99.90;;;;;;5038047;28;20060;-71
2023/05/03 06:11:34;;;;;;;4.85;2.10;;;8.00;99.90;;;;;;5055581;28;20494;-71
2023/05/03 06:14:02;;;;;;;5.38;2.10;;;8.10;99.90;;;;;;5037705;28;20118;-73
2023/05/03 06:16:28;;;;;;;5.22;2.03;;;8.10;99.90;;;;;;5037594;28;20163;-70
2023/05/03 06:18:54;;;;;;;8.15;2.00;;;8.20;99.90;;;;;;5037674;28;20124;-71
2023/05/03 06:21:20;;;;;;;4.20;1.95;;;8.20;99.90;;;;;;5021306;28;20033;-72
2023/05/03 06:23:45;;;;;;;4.13;1.80;;;8.30;99.90;;;;;;5021311;28;20072;-72
2023/05/03 06:26:11;;;;;;;6.25;1.85;;;8.40;99.90;;;;;;5037867;28;20091;-71
2023/05/03 06:28:37;;;;;;;4.97;1.83;;;8.50;99.90;;;;;;5037422;28;20531;-71
2023/05/03 06:31:02;;;;;;;6.57;1.60;;;8.60;99.90;;;;;;5037478;28;20045;-71
2023/05/03 06:33:28;;;;;;;4.32;1.80;;;8.60;99.90;;;;;;5037625;28;20052;-70
2023/05/03 06:35:53;;;;;;;5.32;1.60;;;8.70;99.90;;;;;;5037609;28;20039;-70
2023/05/03 06:38:19;;;;;;;3.28;1.20;;;8.80;99.90;;;;;;5037176;28;20493;-70
2023/05/03 06:40:45;;;;;;;3.95;1.40;;;8.90;99.90;;;;;;5020813;28;20043;-70
2023/05/03 06:43:11;;;;;;;5.43;1.02;;;8.90;99.90;;;;;;5037185;28;20063;-70
2023/05/03 06:45:38;;;;;;;3.20;0.90;;;8.90;99.20;;;;;;5037167;28;20040;-70
2023/05/03 06:48:05;;;;;;;5.65;1.10;;;9.00;98.60;;;;;;5054819;28;20037;-70
2023/05/03 06:50:30;;;;;;;6.70;0.90;;;9.10;97.70;;;;;;5036997;28;20083;-70
2023/05/03 06:52:56;;;;;;;5.53;0.70;;;9.20;97.00;;;;;;5037284;28;20045;-70
2023/05/03 06:55:22;;;;;;;3.45;0.80;;;9.20;96.40;;;;;;5036949;28;20409;-70
2023/05/03 06:57:47;;;;;;;4.65;1.25;;;9.40;96.40;;;;;;5020314;28;20115;-70
2023/05/03 07:00:14;;;;;;;4.25;0.70;;;9.40;95.70;;;;;;5036845;28;20041;-70
2023/05/03 07:02:40;;;;;;;5.72;0.77;;;9.50;95.10;;;;;;5037037;28;20489;-70
2023/05/03 07:05:06;;;;;;;3.45;0.70;;;9.60;94.70;;;;;;5036767;28;20120;-71
2023/05/03 07:07:32;;;;;;;5.93;1.00;;;9.70;94.40;;;;;;5036628;28;20094;-71
2023/05/03 07:09:58;;;;;;;2.20;0.60;;;9.80;93.90;;;;;;5036698;28;20127;-71
2023/05/03 07:12:27;;;;;;;3.83;0.80;;;9.90;93.60;;;;;;5036662;28;20043;-71
2023/05/03 07:14:56;;;;;;;4.13;0.70;;;9.90;92.70;;;;;;5036064;28;20130;-71
2023/05/03 07:17:22;;;;;;;5.75;0.82;;;10.00;91.80;;;;;;5036855;28;20049;-71
2023/05/03 07:19:51;;;;;;;4.80;0.80;;;10.00;91.20;;;;;;5036480;28;20530;-71
2023/05/03 07:22:20;;;;;;;3.13;0.85;;;10.10;91.20;;;;;;5036409;28;20045;-71
2023/05/03 07:24:45;;;;;;;5.25;0.88;;;10.10;91.00;;;;;;5036607;28;20048;-70
2023/05/03 07:27:14;;;;;;;3.15;0.60;;;10.20;91.00;;;;;;5036353;28;20045;-70
2023/05/03 07:29:39;;;;;;;2.30;0.65;;;10.20;90.10;;;;;;5036232;28;20040;-70
2023/05/03 07:32:05;;;;;;;3.50;0.45;;;10.20;89.40;;;;;;5036313;28;20099;-70
2023/05/03 07:34:31;;;;;;;2.50;0.60;;;10.30;88.30;;;;;;5036190;28;20048;-71
2023/05/03 07:36:57;;;;;;;3.88;0.75;;;10.30;87.60;;;;;;5035979;28;20037;-71
2023/05/03 07:39:22;;;;;;;4.85;0.85;;;10.40;87.80;;;;;;5036053;28;20044;-71
2023/05/03 07:41:48;;;;;;;4.63;1.23;;;10.40;87.00;;;;;;5036112;28;20033;-71
2023/05/03 07:44:14;;;;;;;3.45;0.52;;;10.50;86.40;;;;;;5035983;28;20119;-71
2023/05/03 07:46:39;;;;;;;4.22;0.82;;;10.50;85.40;;;;;;5036038;28;20140;-71
2023/05/03 07:49:05;;;;;;;4.65;0.65;;;10.50;85.00;;;;;;5019250;28;20048;-71
2023/05/03 07:51:35;;;;;;;3.30;0.70;;;10.50;84.90;;;;;;5035816;28;20071;-71
2023/05/03 07:54:01;;;;;;;2.83;0.65;;;10.50;83.50;;;;;;5036044;28;20059;-71
2023/05/03 07:56:27;;;;;;;4.75;0.90;;;10.60;84.00;;;;;;5035763;28;20489;-71
2023/05/03 07:58:53;;;;;;;4.65;1.17;;;10.70;83.50;;;;;;5035784;28;20048;-71
2023/05/03 08:01:20;;;;;;;4.65;0.90;;;11.00;83.40;;;;;;5035690;28;20180;-71
2023/05/03 08:03:49;;;;;;;2.53;0.57;;;11.10;82.90;;;;;;5035873;28;20072;-71
2023/05/03 08:06:18;;;;;;;3.60;0.90;;;11.20;82.50;;;;;;5035822;28;20041;-71
2023/05/03 08:08:44;;;;;;;4.50;0.80;;;11.20;81.90;;;;;;5035661;28;20056;-71
2023/05/03 08:11:09;;;;;;;4.47;1.02;;;11.40;81.60;;;;;;5035570;28;20147;-71
2023/05/03 08:13:36;;;;;;;5.10;0.70;;;11.40;81.20;;;;;;5035477;28;20041;-71
2023/05/03 08:16:01;;;;;;;3.38;0.77;;;11.40;80.80;;;;;;5035507;28;20116;-71
2023/05/03 08:18:27;;;;;;;6.75;1.20;;;11.40;80.30;;;;;;5018810;28;20182;-71
2023/05/03 08:20:53;;;;;;;4.88;0.70;;;11.30;79.70;;;;;;5035677;28;20041;-71
2023/05/03 08:23:18;;;;;;;3.67;0.90;;;11.30;79.90;;;;;;5035468;28;20055;-71
2023/05/03 08:25:44;;;;;;;2.88;0.80;;;11.30;79.20;;;;;;5035255;28;20052;-71
2023/05/03 08:28:10;;;;;;;4.90;0.80;;;11.30;79.30;;;;;;5035526;28;20123;-71
2023/05/03 08:30:36;;;;;;;4.75;0.88;;;11.40;79.30;;;;;;5035280;28;20485;-71
2023/05/03 08:33:02;;;;;;;6.90;1.42;;;11.40;79.10;;;;;;5035546;28;20098;-71
2023/05/03 08:35:28;;;;;;;4.00;1.20;;;11.30;78.90;;;;;;5035491;28;20067;-71
2023/05/03 08:37:54;;;;;;;2.42;0.82;;;11.30;78.90;;;;;;5035055;28;20494;-71
2023/05/03 08:40:25;;;;;;;3.63;0.95;;;11.40;78.90;;;;;;5018709;28;20068;-71
2023/05/03 08:42:53;;;;;;;3.53;0.80;;;11.50;78.30;;;;;;5035141;28;20045;-71
2023/05/03 08:45:18;;;;;;;4.95;1.00;;;11.50;78.10;;;;;;5035322;28;20501;-71
2023/05/03 08:47:44;;;;;;;5.10;1.20;;;11.50;78.40;;;;;;5034962;28;20048;-71
2023/05/03 08:50:11;;;;;;;4.38;1.00;;;11.60;78.20;;;;;;5035191;28;20060;-71
2023/05/03 08:52:41;;;;;;;5.40;0.90;;;11.60;77.30;;;;;;5035036;28;20079;-71
2023/05/03 08:55:08;;;;;;;3.80;0.93;;;11.70;76.70;;;;;;5035069;28;20037;-71
2023/05/03 08:57:35;;;;;;;3.40;1.02;;;11.60;76.40;;;;;;5034868;28;20059;-71
2023/05/03 09:00:04;;;;;;;5.88;1.10;;;11.60;76.10;;;;;;5034992;28;20114;-70
2023/05/03 09:02:33;;;;;;;5.35;1.20;;;11.70;76.50;;;;;;5034992;28;20052;-70
2023/05/03 09:04:59;;;;;;;4.25;0.95;;;11.90;76.90;;;;;;5034920;28;20120;-71
2023/05/03 09:07:25;;;;;;;2.55;1.00;;;12.10;76.70;;;;;;5034831;28;20115;-71
2023/05/03 09:09:50;;;;;;;3.45;1.00;;;12.60;75.80;;;;;;5034916;28;20095;-71
2023/05/03 09:12:37;;;;;;;4.57;0.80;;;13.00;75.00;;;;;;5034930;28;20036;-71
2023/05/03 09:15:05;;;;;;;5.80;1.00;;;13.40;75.80;;;;;;5052689;28;20040;-71
2023/05/03 09:17:30;;;;;;;5.00;0.98;;;13.60;74.20;;;;;;5034826;28;20121;-71
2023/05/03 09:19:57;;;;;;;2.92;0.73;;;13.60;72.90;;;;;;5034861;28;20116;-71
2023/05/03 09:22:26;;;;;;;4.20;0.73;;;13.40;72.10;;;;;;5034783;28;20108;-71
2023/05/03 09:24:56;;;;;;;4.78;0.98;;;13.30;71.50;;;;;;5018355;28;20378;-71
2023/05/03 09:27:24;;;;;;;2.10;0.88;;;13.10;71.70;;;;;;5018233;28;20086;-71
2023/05/03 09:29:50;;;;;;;3.95;0.85;;;13.00;71.60;;;;;;5034959;28;20052;-71
2023/05/03 09:32:17;;;;;;;5.95;1.45;;;13.00;71.70;;;;;;5034704;28;20090;-70
2023/05/03 09:34:44;;;;;;;6.00;1.30;;;12.90;71.20;;;;;;5034593;28;20045;-71
2023/05/03 09:37:12;;;;;;;2.83;1.10;;;12.90;71.20;;;;;;5018132;28;20088;-71
2023/05/03 09:39:39;;;;;;;5.57;0.98;;;12.90;72.20;;;;;;5037954;28;20041;-71
2023/05/03 09:42:16;;;;;;;3.95;0.93;;;12.90;71.60;;;;;;5038560;28;20136;-70
2023/05/03 09:44:44;;;;;;;3.03;1.15;;;12.90;71.90;;;;;;5056735;28;20125;-70
2023/05/03 09:47:10;;;;;;;5.88;1.10;;;12.80;71.70;;;;;;5038093;28;20091;-73
2023/05/03 09:49:37;;;;;;;4.55;1.10;;;12.90;71.10;;;;;;5038223;28;20128;-71
2023/05/03 09:52:03;;;;;;;4.25;1.25;;;13.20;72.00;;;;;;5038751;28;20032;-71
2023/05/03 09:54:33;;;;;;;3.53;1.20;;;13.60;71.80;;;;;;5038081;28;20446;-71
2023/05/03 09:57:03;;;;;;;4.20;0.90;;;14.00;70.90;;;;;;5056182;28;20076;-71
2023/05/03 09:59:29;;;;;;;3.75;1.00;;;14.20;70.80;;;;;;5037966;28;20103;-71
2023/05/03 10:02:00;;;;;;;2.40;0.80;;;14.30;69.30;;;;;;5038037;28;20125;-71
2023/05/03 10:04:27;;;;;;;4.95;1.30;;;14.20;68.00;;;;;;5038035;28;20480;-71
2023/05/03 10:07:03;;;;;;;5.43;1.25;;;14.30;67.80;;;;;;5037832;28;20045;-70
2023/05/03 10:09:39;;;;;;;3.38;1.00;;;14.30;67.10;;;;;;5037788;28;20504;-70
2023/05/03 10:12:07;;;;;;;4.05;1.20;;;14.20;66.70;;;;;;5037753;28;20055;-70
2023/05/03 10:14:33;;;;;;;3.10;1.08;;;14.10;66.70;;;;;;5021179;28;20053;-70
2023/05/03 10:17:07;;;;;;;5.30;1.08;;;14.10;66.70;;;;;;5037582;28;20053;-72
2023/05/03 10:19:39;;;;;;;4.28;1.15;;;14.00;66.80;;;;;;5037851;28;20124;-72
2023/05/03 10:22:07;;;;;;;5.13;1.30;;;13.90;67.00;;;;;;5021013;28;20049;-70
2023/05/03 10:24:34;;;;;;;2.92;0.90;;;13.90;67.30;;;;;;5020981;28;20284;-70
2023/05/03 10:27:00;;;;;;;4.82;1.27;;;13.80;66.80;;;;;;5055351;28;20040;-70
2023/05/03 10:29:36;;;;;;;3.83;1.70;;;13.90;67.10;;;;;;5037481;28;20052;-70
2023/05/03 10:32:04;;;;;;;3.60;0.90;;;14.20;67.00;;;;;;5037432;28;20041;-70
2023/05/03 10:34:34;;;;;;;5.03;1.20;;;14.70;66.60;;;;;;5021119;28;20032;-71
2023/05/03 10:37:06;;;;;;;3.55;1.00;;;15.10;66.10;;;;;;5037254;28;20386;-71
2023/05/03 10:39:32;;;;;;;2.55;1.00;;;15.30;66.10;;;;;;5037271;28;20047;-70
2023/05/03 10:42:07;;;;;;;4.47;1.45;;;15.50;65.60;;;;;;5037316;28;20119;-70
2023/05/03 10:44:52;;;;;;;5.43;1.10;;;15.70;64.60;;;;;;5037425;28;20112;-70
2023/05/03 10:47:22;;;;;;;4.70;0.90;;;15.70;62.50;;;;;;5036934;28;20448;-70
2023/05/03 10:50:10;;;;;;;6.18;1.45;;;15.60;64.00;;;;;;5036005;28;20103;-70
2023/05/03 10:52:39;;;;;;;3.65;1.00;;;15.70;63.50;;;;;;5036895;28;20535;-70
2023/05/03 10:55:17;;;;;;;3.45;1.20;;;15.50;63.60;;;;;;5037246;28;20128;-70
2023/05/03 10:57:45;;;;;;;7.90;1.45;;;15.60;63.20;;;;;;5036825;28;20040;-70
2023/05/03 11:00:15;;;;;;;3.97;1.20;;;15.70;63.70;;;;;;5037151;28;20094;-71
2023/05/03 11:03:11;;;;;;;3.33;1.20;;;16.00;63.50;;;;;;5037102;28;20041;-71
2023/05/03 11:05:37;;;;;;;5.43;1.50;;;16.40;63.50;;;;;;5020326;28;20045;-71
2023/05/03 11:08:12;;;;;;;3.65;1.00;;;16.70;63.20;;;;;;5036633;28;20094;-71
2023/05/03 11:10:38;;;;;;;2.50;0.90;;;16.90;62.20;;;;;;5036966;28;20044;-71
2023/05/03 11:13:05;;;;;;;3.17;1.10;;;16.90;61.70;;;;;;5036659;28;20049;-71
2023/05/03 11:15:31;;;;;;;5.63;1.10;;;16.90;61.10;;;;;;5054720;28;20049;-70
2023/05/03 11:17:57;;;;;;;2.78;1.20;;;17.00;60.90;;;;;;5036627;28;20037;-71
2023/05/03 11:20:23;;;;;;;3.55;1.27;;;16.80;60.40;;;;;;5055134;28;20478;-71
2023/05/03 11:22:48;;;;;;;3.53;1.40;;;16.70;60.00;;;;;;5036518;28;20041;-71
2023/05/03 11:25:14;;;;;;;4.53;1.10;;;16.80;60.30;;;;;;5037208;28;20040;-71
2023/05/03 11:27:41;;;;;;;2.67;1.23;;;17.00;60.40;;;;;;5054376;28;20033;-71
2023/05/03 11:30:07;;;;;;;5.00;1.15;;;17.10;60.60;;;;;;5019764;28;20072;-70
2023/05/03 11:32:33;;;;;;;5.30;1.35;;;17.30;60.00;;;;;;5036453;28;20037;-70
2023/05/03 11:35:02;;;;;;;4.75;1.20;;;17.40;59.30;;;;;;5036181;28;20041;-71
2023/05/03 11:37:28;;;;;;;4.70;1.33;;;17.60;59.50;;;;;;5035925;28;20094;-71
2023/05/03 11:39:53;;;;;;;5.72;1.42;;;17.60;58.30;;;;;;5036131;28;20037;-71
2023/05/03 11:42:19;;;;;;;3.25;1.10;;;17.80;58.40;;;;;;5036090;28;20045;-71
2023/05/03 11:44:45;;;;;;;2.03;0.98;;;17.90;57.20;;;;;;5035928;28;20040;-71
2023/05/03 11:47:11;;;;;;;5.03;1.50;;;18.00;57.00;;;;;;5035668;28;20045;-70
2023/05/03 11:49:36;;;;;;;3.17;1.30;;;18.00;56.70;;;;;;5036303;28;20048;-70
2023/05/03 11:52:02;;;;;;;5.50;1.15;;;18.30;56.90;;;;;;5035959;28;20045;-70
2023/05/03 11:54:29;;;;;;;6.57;1.15;;;18.50;56.90;;;;;;5019346;28;20049;-70
2023/05/03 11:56:57;;;;;;;5.30;1.52;;;18.60;56.30;;;;;;5035752;28;20086;-71
2023/05/03 11:59:40;;;;;;;3.70;1.17;;;18.50;55.70;;;;;;5019181;28;20045;-71
2023/05/03 12:02:08;;;;;;;5.72;1.33;;;18.60;54.60;;;;;;5035483;28;20119;-70
2023/05/03 12:04:35;;;;;;;3.20;1.02;;;18.60;55.20;;;;;;5035978;28;20114;-71
2023/05/03 12:07:00;;;;;;;5.05;1.30;;;18.80;54.30;;;;;;5035642;28;20047;-70
2023/05/03 12:09:27;;;;;;;3.08;1.17;;;19.00;54.70;;;;;;5035869;28;20040;-70
2023/05/03 12:11:52;;;;;;;4.28;1.30;;;19.00;53.40;;;;;;5035541;28;20045;-70
2023/05/03 12:14:18;;;;;;;4.72;1.20;;;19.10;54.20;;;;;;5035583;28;20052;-71
2023/05/03 12:16:49;;;;;;;5.68;1.20;;;19.10;53.40;;;;;;5035740;28;20053;-70
2023/05/03 12:19:29;;;;;;;6.00;1.23;;;19.20;53.00;;;;;;5035329;28;20075;-70
2023/05/03 12:21:55;;;;;;;4.15;1.20;;;19.20;51.00;;;;;;5035407;28;20068;-70
2023/05/03 12:24:22;;;;;;;8.65;1.38;;;19.10;52.60;;;;;;5035618;28;20043;-70
2023/05/03 12:26:51;;;;;;;5.13;1.58;;;19.10;52.60;;;;;;5035594;28;20045;-70
2023/05/03 12:29:18;;;;;;;8.60;1.30;;;19.30;53.50;;;;;;5035319;28;20055;-71
2023/05/03 12:31:44;;;;;;;5.53;1.40;;;19.20;53.20;;;;;;5035559;28;20162;-70
2023/05/03 12:34:10;;;;;;;4.35;1.25;;;19.30;53.50;;;;;;5035340;28;20033;-71
2023/05/03 12:36:36;;;;;;;4.57;1.58;;;19.40;54.30;;;;;;5035230;28;20053;-69
2023/05/03 12:39:02;;;;;;;4.03;1.05;;;19.50;53.60;;;;;;5035011;28;20052;-69
2023/05/03 12:41:30;;;;;;;5.28;1.30;;;19.70;52.80;;;;;;5035257;28;20044;-69
2023/05/03 12:44:01;;;;;;;4.40;1.13;;;19.90;53.00;;;;;;5053480;28;20041;-69
2023/05/03 12:46:26;;;;;;;5.25;1.10;;;19.90;51.60;;;;;;5052786;28;20494;-69
2023/05/03 12:48:52;;;;;;;4.53;1.45;;;19.80;51.90;;;;;;5035077;28;20041;-69
2023/05/03 12:51:18;;;;;;;4.10;1.20;;;19.70;52.00;;;;;;5035013;28;20041;-69
2023/05/03 12:53:45;;;;;;;6.50;1.27;;;19.70;52.70;;;;;;5035289;28;20037;-69